sensor_id;sensor_type;location;lat;lon;timestamp;temperature;humidity
2873;DHT22;1444;49.166;7.312;2023-03-23T00:01:47;15.00;91.50
2873;DHT22;1444;49.166;7.312;2023-03-23T00:04:15;15.00;91.50
2873;DHT22;1444;49.166;7.312;2023-03-23T00:06:42;15.00;91.40
2873;DHT22;1444;49.166;7.312;2023-03-23T00:09:11;14.90;90.90
2873;DHT22;1444;49.166;7.312;2023-03-23T00:11:38;14.90;91.30
2873;DHT22;1444;49.166;7.312;2023-03-23T00:14:06;15.00;91.50
2873;DHT22;1444;49.166;7.312;2023-03-23T00:16:38;15.10;91.40
2873;DHT22;1444;49.166;7.312;2023-03-23T00:19:07;15.00;91.20
2873;DHT22;1444;49.166;7.312;2023-03-23T00:21:36;15.00;91.30
2873;DHT22;1444;49.166;7.312;2023-03-23T00:24:06;15.10;90.90
2873;DHT22;1444;49.166;7.312;2023-03-23T00:26:34;13.80;90.40
2873;DHT22;1444;49.166;7.312;2023-03-23T00:29:02;15.10;91.10
2873;DHT22;1444;49.166;7.312;2023-03-23T00:31:31;15.10;91.10
2873;DHT22;1444;49.166;7.312;2023-03-23T00:33:59;15.10;91.10
2873;DHT22;1444;49.166;7.312;2023-03-23T00:36:29;15.10;91.10
2873;DHT22;1444;49.166;7.312;2023-03-23T00:38:56;15.10;91.40
2873;DHT22;1444;49.166;7.312;2023-03-23T00:41:25;15.10;91.60
2873;DHT22;1444;49.166;7.312;2023-03-23T00:43:54;15.00;91.60
2873;DHT22;1444;49.166;7.312;2023-03-23T00:46:21;15.10;91.40
2873;DHT22;1444;49.166;7.312;2023-03-23T00:48:49;15.00;91.60
2873;DHT22;1444;49.166;7.312;2023-03-23T00:51:16;15.10;91.40
2873;DHT22;1444;49.166;7.312;2023-03-23T00:56:11;15.00;91.40
2873;DHT22;1444;49.166;7.312;2023-03-23T00:58:38;15.00;91.40
2873;DHT22;1444;49.166;7.312;2023-03-23T01:03:32;14.90;91.30
2873;DHT22;1444;49.166;7.312;2023-03-23T01:06:06;14.80;91.20
2873;DHT22;1444;49.166;7.312;2023-03-23T01:08:34;14.90;91.60
2873;DHT22;1444;49.166;7.312;2023-03-23T01:11:03;15.00;91.80
2873;DHT22;1444;49.166;7.312;2023-03-23T01:13:31;14.90;91.60
2873;DHT22;1444;49.166;7.312;2023-03-23T01:15:58;14.90;91.60
2873;DHT22;1444;49.166;7.312;2023-03-23T01:18:25;14.80;91.70
2873;DHT22;1444;49.166;7.312;2023-03-23T01:20:52;14.70;91.70
2873;DHT22;1444;49.166;7.312;2023-03-23T01:23:20;14.70;91.80
2873;DHT22;1444;49.166;7.312;2023-03-23T01:25:47;14.70;92.00
2873;DHT22;1444;49.166;7.312;2023-03-23T01:28:14;14.50;92.00
2873;DHT22;1444;49.166;7.312;2023-03-23T01:30:41;14.50;92.30
2873;DHT22;1444;49.166;7.312;2023-03-23T01:33:08;14.50;92.50
2873;DHT22;1444;49.166;7.312;2023-03-23T01:35:37;14.30;92.70
2873;DHT22;1444;49.166;7.312;2023-03-23T01:38:04;11.60;91.50
2873;DHT22;1444;49.166;7.312;2023-03-23T01:40:32;14.40;93.00
2873;DHT22;1444;49.166;7.312;2023-03-23T01:42:59;14.40;93.00
2873;DHT22;1444;49.166;7.312;2023-03-23T01:45:30;14.40;93.00
2873;DHT22;1444;49.166;7.312;2023-03-23T01:48:05;14.40;93.20
2873;DHT22;1444;49.166;7.312;2023-03-23T01:50:38;14.40;93.00
2873;DHT22;1444;49.166;7.312;2023-03-23T01:53:08;14.50;93.10
2873;DHT22;1444;49.166;7.312;2023-03-23T01:55:39;14.50;92.90
2873;DHT22;1444;49.166;7.312;2023-03-23T01:58:08;14.50;92.80
2873;DHT22;1444;49.166;7.312;2023-03-23T02:00:36;14.50;93.10
2873;DHT22;1444;49.166;7.312;2023-03-23T02:03:06;14.50;92.90
2873;DHT22;1444;49.166;7.312;2023-03-23T02:05:38;14.50;92.80
2873;DHT22;1444;49.166;7.312;2023-03-23T02:08:07;14.50;92.80
2873;DHT22;1444;49.166;7.312;2023-03-23T02:10:37;14.50;93.00
2873;DHT22;1444;49.166;7.312;2023-03-23T02:13:06;14.50;92.90
2873;DHT22;1444;49.166;7.312;2023-03-23T02:15:41;14.50;93.00
2873;DHT22;1444;49.166;7.312;2023-03-23T02:18:16;14.50;93.10
2873;DHT22;1444;49.166;7.312;2023-03-23T02:21:04;14.50;92.90
2873;DHT22;1444;49.166;7.312;2023-03-23T02:23:58;14.40;92.90
2873;DHT22;1444;49.166;7.312;2023-03-23T02:26:42;14.50;93.00
2873;DHT22;1444;49.166;7.312;2023-03-23T02:29:42;14.40;93.20
2873;DHT22;1444;49.166;7.312;2023-03-23T02:32:23;14.40;93.30
2873;DHT22;1444;49.166;7.312;2023-03-23T02:37:24;14.40;93.30
2873;DHT22;1444;49.166;7.312;2023-03-23T02:39:57;14.30;93.40
2873;DHT22;1444;49.166;7.312;2023-03-23T02:42:28;14.30;93.50
2873;DHT22;1444;49.166;7.312;2023-03-23T02:44:59;14.30;93.60
2873;DHT22;1444;49.166;7.312;2023-03-23T02:47:29;14.30;93.50
2873;DHT22;1444;49.166;7.312;2023-03-23T02:49:58;14.30;93.50
2873;DHT22;1444;49.166;7.312;2023-03-23T02:52:28;14.40;93.50
2873;DHT22;1444;49.166;7.312;2023-03-23T02:54:56;14.40;93.30
2873;DHT22;1444;49.166;7.312;2023-03-23T02:57:26;14.30;93.30
2873;DHT22;1444;49.166;7.312;2023-03-23T02:59:53;14.30;93.40
2873;DHT22;1444;49.166;7.312;2023-03-23T03:02:22;14.30;93.60
2873;DHT22;1444;49.166;7.312;2023-03-23T03:04:53;14.40;93.40
2873;DHT22;1444;49.166;7.312;2023-03-23T03:07:39;14.40;93.20
2873;DHT22;1444;49.166;7.312;2023-03-23T03:10:19;14.40;93.30
2873;DHT22;1444;49.166;7.312;2023-03-23T03:12:55;14.40;93.20
2873;DHT22;1444;49.166;7.312;2023-03-23T03:15:27;14.40;93.00
2873;DHT22;1444;49.166;7.312;2023-03-23T03:18:01;14.40;93.10
2873;DHT22;1444;49.166;7.312;2023-03-23T03:20:31;14.50;93.10
2873;DHT22;1444;49.166;7.312;2023-03-23T03:23:00;14.50;93.00
2873;DHT22;1444;49.166;7.312;2023-03-23T03:25:28;14.50;93.20
2873;DHT22;1444;49.166;7.312;2023-03-23T03:27:55;14.50;93.50
2873;DHT22;1444;49.166;7.312;2023-03-23T03:30:25;14.60;93.40
2873;DHT22;1444;49.166;7.312;2023-03-23T03:32:53;14.50;93.80
2873;DHT22;1444;49.166;7.312;2023-03-23T03:35:21;14.50;93.80
2873;DHT22;1444;49.166;7.312;2023-03-23T03:37:48;14.40;94.10
2873;DHT22;1444;49.166;7.312;2023-03-23T03:45:15;14.40;94.70
2873;DHT22;1444;49.166;7.312;2023-03-23T03:47:43;14.40;94.70
2873;DHT22;1444;49.166;7.312;2023-03-23T03:50:10;14.30;94.70
2873;DHT22;1444;49.166;7.312;2023-03-23T03:52:37;14.30;95.70
2873;DHT22;1444;49.166;7.312;2023-03-23T03:57:34;14.10;95.90
2873;DHT22;1444;49.166;7.312;2023-03-23T04:00:02;14.10;95.40
2873;DHT22;1444;49.166;7.312;2023-03-23T04:02:38;14.10;95.70
2873;DHT22;1444;49.166;7.312;2023-03-23T04:07:34;14.00;96.10
2873;DHT22;1444;49.166;7.312;2023-03-23T04:10:04;14.00;95.70
2873;DHT22;1444;49.166;7.312;2023-03-23T04:12:31;14.10;95.70
2873;DHT22;1444;49.166;7.312;2023-03-23T04:14:59;14.00;96.10
2873;DHT22;1444;49.166;7.312;2023-03-23T04:19:53;13.90;96.50
2873;DHT22;1444;49.166;7.312;2023-03-23T04:22:22;13.90;96.30
2873;DHT22;1444;49.166;7.312;2023-03-23T04:24:56;14.00;96.30
2873;DHT22;1444;49.166;7.312;2023-03-23T04:27:24;14.00;96.60
2873;DHT22;1444;49.166;7.312;2023-03-23T04:29:53;14.00;96.70
2873;DHT22;1444;49.166;7.312;2023-03-23T04:34:50;14.00;97.00
2873;DHT22;1444;49.166;7.312;2023-03-23T04:37:17;13.90;97.20
2873;DHT22;1444;49.166;7.312;2023-03-23T04:39:44;13.70;97.50
2873;DHT22;1444;49.166;7.312;2023-03-23T04:47:08;13.60;97.60
2873;DHT22;1444;49.166;7.312;2023-03-23T04:52:04;13.50;98.10
2873;DHT22;1444;49.166;7.312;2023-03-23T04:54:31;13.50;98.40
2873;DHT22;1444;49.166;7.312;2023-03-23T04:56:57;13.50;98.60
2873;DHT22;1444;49.166;7.312;2023-03-23T05:01:53;15.60;99.70
2873;DHT22;1444;49.166;7.312;2023-03-23T05:04:21;13.30;98.80
2873;DHT22;1444;49.166;7.312;2023-03-23T05:09:16;13.30;98.70
2873;DHT22;1444;49.166;7.312;2023-03-23T05:11:43;13.30;98.80
2873;DHT22;1444;49.166;7.312;2023-03-23T05:21:33;13.30;98.70
2873;DHT22;1444;49.166;7.312;2023-03-23T05:24:01;13.20;98.90
2873;DHT22;1444;49.166;7.312;2023-03-23T05:26:30;13.30;98.90
2873;DHT22;1444;49.166;7.312;2023-03-23T05:28:58;14.40;99.50
2873;DHT22;1444;49.166;7.312;2023-03-23T05:31:25;13.20;99.30
2873;DHT22;1444;49.166;7.312;2023-03-23T05:38:48;13.00;99.30
2873;DHT22;1444;49.166;7.312;2023-03-23T05:43:43;13.00;99.90
2873;DHT22;1444;49.166;7.312;2023-03-23T05:46:10;13.00;99.70
2873;DHT22;1444;49.166;7.312;2023-03-23T05:48:37;13.10;99.60
2873;DHT22;1444;49.166;7.312;2023-03-23T05:51:04;13.00;99.90
2873;DHT22;1444;49.166;7.312;2023-03-23T05:53:31;13.00;99.90
2873;DHT22;1444;49.166;7.312;2023-03-23T05:56:00;13.00;99.90
2873;DHT22;1444;49.166;7.312;2023-03-23T05:58:28;12.90;99.90
2873;DHT22;1444;49.166;7.312;2023-03-23T06:03:22;9.50;99.90
2873;DHT22;1444;49.166;7.312;2023-03-23T06:05:50;12.70;99.90
2873;DHT22;1444;49.166;7.312;2023-03-23T06:08:17;12.60;99.90
2873;DHT22;1444;49.166;7.312;2023-03-23T06:10:44;12.70;99.90
2873;DHT22;1444;49.166;7.312;2023-03-23T06:13:11;12.60;99.90
2873;DHT22;1444;49.166;7.312;2023-03-23T06:15:39;12.60;99.90
2873;DHT22;1444;49.166;7.312;2023-03-23T06:18:06;12.60;99.90
2873;DHT22;1444;49.166;7.312;2023-03-23T06:20:33;12.60;99.90
2873;DHT22;1444;49.166;7.312;2023-03-23T06:23:00;12.60;99.90
2873;DHT22;1444;49.166;7.312;2023-03-23T06:25:28;12.60;99.90
2873;DHT22;1444;49.166;7.312;2023-03-23T06:27:55;12.60;99.90
2873;DHT22;1444;49.166;7.312;2023-03-23T06:30:22;12.60;99.90
2873;DHT22;1444;49.166;7.312;2023-03-23T06:32:50;12.60;99.90
2873;DHT22;1444;49.166;7.312;2023-03-23T06:35:17;12.60;99.90
2873;DHT22;1444;49.166;7.312;2023-03-23T06:37:44;12.70;99.90
2873;DHT22;1444;49.166;7.312;2023-03-23T06:40:11;12.60;99.90
2873;DHT22;1444;49.166;7.312;2023-03-23T06:42:38;12.70;99.90
2873;DHT22;1444;49.166;7.312;2023-03-23T06:45:06;12.60;99.90
2873;DHT22;1444;49.166;7.312;2023-03-23T06:47:33;12.60;99.90
2873;DHT22;1444;49.166;7.312;2023-03-23T06:50:01;12.70;99.90
2873;DHT22;1444;49.166;7.312;2023-03-23T06:52:28;12.70;99.90
2873;DHT22;1444;49.166;7.312;2023-03-23T06:54:55;12.70;99.90
2873;DHT22;1444;49.166;7.312;2023-03-23T06:57:22;12.90;99.90
2873;DHT22;1444;49.166;7.312;2023-03-23T06:59:49;12.90;99.90
2873;DHT22;1444;49.166;7.312;2023-03-23T07:02:16;12.90;99.90
2873;DHT22;1444;49.166;7.312;2023-03-23T07:04:42;12.80;99.90
2873;DHT22;1444;49.166;7.312;2023-03-23T07:07:11;12.90;99.90
2873;DHT22;1444;49.166;7.312;2023-03-23T07:09:40;12.80;99.90
2873;DHT22;1444;49.166;7.312;2023-03-23T07:12:07;12.90;99.90
2873;DHT22;1444;49.166;7.312;2023-03-23T07:14:35;12.80;99.90
2873;DHT22;1444;49.166;7.312;2023-03-23T07:17:02;12.90;99.90
2873;DHT22;1444;49.166;7.312;2023-03-23T07:19:29;13.00;99.90
2873;DHT22;1444;49.166;7.312;2023-03-23T07:21:57;13.00;99.90
2873;DHT22;1444;49.166;7.312;2023-03-23T07:24:25;12.40;99.90
2873;DHT22;1444;49.166;7.312;2023-03-23T07:26:51;13.00;99.90
2873;DHT22;1444;49.166;7.312;2023-03-23T07:29:18;13.00;99.90
2873;DHT22;1444;49.166;7.312;2023-03-23T07:31:45;13.10;99.90
2873;DHT22;1444;49.166;7.312;2023-03-23T07:34:11;13.20;99.90
2873;DHT22;1444;49.166;7.312;2023-03-23T07:36:38;13.30;99.90
2873;DHT22;1444;49.166;7.312;2023-03-23T07:39:05;13.40;99.90
2873;DHT22;1444;49.166;7.312;2023-03-23T07:41:34;13.40;99.90
2873;DHT22;1444;49.166;7.312;2023-03-23T07:44:01;13.40;99.90
2873;DHT22;1444;49.166;7.312;2023-03-23T07:46:28;13.40;99.90
2873;DHT22;1444;49.166;7.312;2023-03-23T07:48:55;13.40;99.90
2873;DHT22;1444;49.166;7.312;2023-03-23T07:51:22;13.40;99.90
2873;DHT22;1444;49.166;7.312;2023-03-23T07:53:49;13.40;99.90
2873;DHT22;1444;49.166;7.312;2023-03-23T07:56:17;13.40;99.90
2873;DHT22;1444;49.166;7.312;2023-03-23T07:58:46;13.40;99.90
2873;DHT22;1444;49.166;7.312;2023-03-23T08:01:13;12.50;99.90
2873;DHT22;1444;49.166;7.312;2023-03-23T08:03:40;13.50;99.90
2873;DHT22;1444;49.166;7.312;2023-03-23T08:06:07;13.40;99.90
2873;DHT22;1444;49.166;7.312;2023-03-23T08:08:35;13.40;99.90
2873;DHT22;1444;49.166;7.312;2023-03-23T08:11:02;13.40;99.90
2873;DHT22;1444;49.166;7.312;2023-03-23T08:13:29;13.30;99.90
2873;DHT22;1444;49.166;7.312;2023-03-23T08:15:57;13.30;99.90
2873;DHT22;1444;49.166;7.312;2023-03-23T08:18:24;13.40;99.90
2873;DHT22;1444;49.166;7.312;2023-03-23T08:20:51;13.30;99.90
2873;DHT22;1444;49.166;7.312;2023-03-23T08:23:19;13.30;99.90
2873;DHT22;1444;49.166;7.312;2023-03-23T08:25:47;13.30;99.90
2873;DHT22;1444;49.166;7.312;2023-03-23T08:28:14;13.30;99.90
2873;DHT22;1444;49.166;7.312;2023-03-23T08:30:42;13.10;99.90
2873;DHT22;1444;49.166;7.312;2023-03-23T08:33:10;13.10;99.90
2873;DHT22;1444;49.166;7.312;2023-03-23T08:35:37;13.10;99.90
2873;DHT22;1444;49.166;7.312;2023-03-23T08:38:04;13.10;99.90
2873;DHT22;1444;49.166;7.312;2023-03-23T08:40:33;13.00;99.90
2873;DHT22;1444;49.166;7.312;2023-03-23T08:43:00;13.10;99.90
2873;DHT22;1444;49.166;7.312;2023-03-23T08:45:27;12.90;99.90
2873;DHT22;1444;49.166;7.312;2023-03-23T08:47:54;12.90;99.90
2873;DHT22;1444;49.166;7.312;2023-03-23T08:50:24;13.00;99.90
2873;DHT22;1444;49.166;7.312;2023-03-23T08:52:52;13.00;99.90
2873;DHT22;1444;49.166;7.312;2023-03-23T08:59:15;12.90;99.90
2873;DHT22;1444;49.166;7.312;2023-03-23T09:01:41;12.90;99.90
2873;DHT22;1444;49.166;7.312;2023-03-23T09:04:09;13.00;99.90
2873;DHT22;1444;49.166;7.312;2023-03-23T09:06:38;12.90;99.90
2873;DHT22;1444;49.166;7.312;2023-03-23T09:09:05;13.00;99.90
2873;DHT22;1444;49.166;7.312;2023-03-23T09:11:32;12.90;99.90
2873;DHT22;1444;49.166;7.312;2023-03-23T09:13:59;12.90;99.90
2873;DHT22;1444;49.166;7.312;2023-03-23T09:16:26;13.10;99.90
2873;DHT22;1444;49.166;7.312;2023-03-23T09:18:54;13.00;99.90
2873;DHT22;1444;49.166;7.312;2023-03-23T09:21:22;13.00;99.90
2873;DHT22;1444;49.166;7.312;2023-03-23T09:23:50;13.10;99.90
2873;DHT22;1444;49.166;7.312;2023-03-23T09:26:17;13.20;99.90
2873;DHT22;1444;49.166;7.312;2023-03-23T09:28:44;13.20;99.90
2873;DHT22;1444;49.166;7.312;2023-03-23T09:31:11;13.20;99.90
2873;DHT22;1444;49.166;7.312;2023-03-23T09:33:38;13.10;99.90
2873;DHT22;1444;49.166;7.312;2023-03-23T09:36:05;13.10;99.90
2873;DHT22;1444;49.166;7.312;2023-03-23T09:38:33;13.10;99.90
2873;DHT22;1444;49.166;7.312;2023-03-23T09:41:22;13.00;99.90
2873;DHT22;1444;49.166;7.312;2023-03-23T09:44:00;12.90;99.90
2873;DHT22;1444;49.166;7.312;2023-03-23T09:46:43;12.90;99.90
2873;DHT22;1444;49.166;7.312;2023-03-23T09:49:16;12.90;99.90
2873;DHT22;1444;49.166;7.312;2023-03-23T09:51:45;12.80;99.90
2873;DHT22;1444;49.166;7.312;2023-03-23T09:54:19;12.80;99.90
2873;DHT22;1444;49.166;7.312;2023-03-23T09:56:48;12.80;99.90
2873;DHT22;1444;49.166;7.312;2023-03-23T09:59:20;12.80;99.90
2873;DHT22;1444;49.166;7.312;2023-03-23T10:01:50;12.90;99.90
2873;DHT22;1444;49.166;7.312;2023-03-23T10:04:27;12.90;99.90
2873;DHT22;1444;49.166;7.312;2023-03-23T10:06:58;12.90;99.90
2873;DHT22;1444;49.166;7.312;2023-03-23T10:09:26;13.00;99.90
2873;DHT22;1444;49.166;7.312;2023-03-23T10:12:02;13.00;99.90
2873;DHT22;1444;49.166;7.312;2023-03-23T10:14:41;12.90;99.90
2873;DHT22;1444;49.166;7.312;2023-03-23T10:17:14;12.90;99.90
2873;DHT22;1444;49.166;7.312;2023-03-23T10:19:47;13.10;99.90
2873;DHT22;1444;49.166;7.312;2023-03-23T10:22:20;13.20;99.90
2873;DHT22;1444;49.166;7.312;2023-03-23T10:24:51;13.20;99.90
2873;DHT22;1444;49.166;7.312;2023-03-23T10:27:26;13.50;99.90
2873;DHT22;1444;49.166;7.312;2023-03-23T10:29:57;13.70;99.90
2873;DHT22;1444;49.166;7.312;2023-03-23T10:32:40;14.00;99.90
2873;DHT22;1444;49.166;7.312;2023-03-23T10:35:12;13.90;99.90
2873;DHT22;1444;49.166;7.312;2023-03-23T10:37:44;14.50;99.90
2873;DHT22;1444;49.166;7.312;2023-03-23T10:40:15;14.00;99.90
2873;DHT22;1444;49.166;7.312;2023-03-23T10:42:44;14.00;99.90
2873;DHT22;1444;49.166;7.312;2023-03-23T10:45:16;14.10;99.90
2873;DHT22;1444;49.166;7.312;2023-03-23T10:47:46;14.00;99.90
2873;DHT22;1444;49.166;7.312;2023-03-23T10:50:16;14.00;99.90
2873;DHT22;1444;49.166;7.312;2023-03-23T10:52:44;13.90;99.90
2873;DHT22;1444;49.166;7.312;2023-03-23T10:55:13;14.00;99.90
2873;DHT22;1444;49.166;7.312;2023-03-23T10:57:42;14.10;99.90
2873;DHT22;1444;49.166;7.312;2023-03-23T11:00:18;14.10;99.90
2873;DHT22;1444;49.166;7.312;2023-03-23T11:02:56;14.10;99.90
2873;DHT22;1444;49.166;7.312;2023-03-23T11:05:26;14.10;99.90
2873;DHT22;1444;49.166;7.312;2023-03-23T11:07:56;14.10;99.90
2873;DHT22;1444;49.166;7.312;2023-03-23T11:10:25;14.20;99.90
2873;DHT22;1444;49.166;7.312;2023-03-23T11:12:54;14.20;99.90
2873;DHT22;1444;49.166;7.312;2023-03-23T11:15:29;14.20;99.90
2873;DHT22;1444;49.166;7.312;2023-03-23T11:17:58;14.00;99.90
2873;DHT22;1444;49.166;7.312;2023-03-23T11:20:26;14.10;99.90
2873;DHT22;1444;49.166;7.312;2023-03-23T11:22:55;12.30;99.90
2873;DHT22;1444;49.166;7.312;2023-03-23T11:25:22;14.10;99.90
2873;DHT22;1444;49.166;7.312;2023-03-23T11:27:50;14.10;99.90
2873;DHT22;1444;49.166;7.312;2023-03-23T11:30:23;14.00;99.90
2873;DHT22;1444;49.166;7.312;2023-03-23T11:32:54;14.00;99.90
2873;DHT22;1444;49.166;7.312;2023-03-23T11:35:25;13.90;99.90
2873;DHT22;1444;49.166;7.312;2023-03-23T11:37:54;13.90;99.90
2873;DHT22;1444;49.166;7.312;2023-03-23T11:40:22;13.90;99.90
2873;DHT22;1444;49.166;7.312;2023-03-23T11:42:57;14.00;99.90
2873;DHT22;1444;49.166;7.312;2023-03-23T11:45:32;14.00;99.90
2873;DHT22;1444;49.166;7.312;2023-03-23T11:48:10;14.10;99.90
2873;DHT22;1444;49.166;7.312;2023-03-23T11:50:48;14.10;99.90
2873;DHT22;1444;49.166;7.312;2023-03-23T11:53:23;14.30;99.90
2873;DHT22;1444;49.166;7.312;2023-03-23T11:56:08;14.20;99.90
2873;DHT22;1444;49.166;7.312;2023-03-23T11:58:37;16.90;99.90
2873;DHT22;1444;49.166;7.312;2023-03-23T12:01:06;14.30;99.90
2873;DHT22;1444;49.166;7.312;2023-03-23T12:03:56;14.30;99.90
2873;DHT22;1444;49.166;7.312;2023-03-23T12:06:34;14.40;99.90
2873;DHT22;1444;49.166;7.312;2023-03-23T12:09:10;14.40;99.90
2873;DHT22;1444;49.166;7.312;2023-03-23T12:11:49;14.40;99.90
2873;DHT22;1444;49.166;7.312;2023-03-23T12:14:25;14.50;99.90
2873;DHT22;1444;49.166;7.312;2023-03-23T12:17:01;14.50;99.90
2873;DHT22;1444;49.166;7.312;2023-03-23T12:19:42;14.50;99.90
2873;DHT22;1444;49.166;7.312;2023-03-23T12:22:21;14.60;99.90
2873;DHT22;1444;49.166;7.312;2023-03-23T12:24:57;14.50;99.90
2873;DHT22;1444;49.166;7.312;2023-03-23T12:27:30;14.00;99.90
2873;DHT22;1444;49.166;7.312;2023-03-23T12:30:11;14.10;99.90
2873;DHT22;1444;49.166;7.312;2023-03-23T12:32:51;13.90;99.90
2873;DHT22;1444;49.166;7.312;2023-03-23T12:35:31;14.30;99.90
2873;DHT22;1444;49.166;7.312;2023-03-23T12:38:10;14.40;99.90
2873;DHT22;1444;49.166;7.312;2023-03-23T12:41:01;14.80;99.90
2873;DHT22;1444;49.166;7.312;2023-03-23T12:43:37;15.00;99.90
2873;DHT22;1444;49.166;7.312;2023-03-23T12:46:16;15.30;99.90
2873;DHT22;1444;49.166;7.312;2023-03-23T12:48:52;15.20;99.90
2873;DHT22;1444;49.166;7.312;2023-03-23T12:51:28;15.30;99.90
2873;DHT22;1444;49.166;7.312;2023-03-23T12:54:02;15.40;99.90
2873;DHT22;1444;49.166;7.312;2023-03-23T12:56:32;15.30;99.90
2873;DHT22;1444;49.166;7.312;2023-03-23T12:59:09;15.40;99.90
2873;DHT22;1444;49.166;7.312;2023-03-23T13:01:38;15.10;99.90
2873;DHT22;1444;49.166;7.312;2023-03-23T13:04:10;15.20;99.90
2873;DHT22;1444;49.166;7.312;2023-03-23T13:06:40;15.00;99.90
2873;DHT22;1444;49.166;7.312;2023-03-23T13:09:12;14.80;99.90
2873;DHT22;1444;49.166;7.312;2023-03-23T13:11:42;14.80;99.90
2873;DHT22;1444;49.166;7.312;2023-03-23T13:14:26;14.70;99.90
2873;DHT22;1444;49.166;7.312;2023-03-23T13:17:01;14.80;99.90
2873;DHT22;1444;49.166;7.312;2023-03-23T13:19:34;14.50;99.90
2873;DHT22;1444;49.166;7.312;2023-03-23T13:22:09;14.50;99.90
2873;DHT22;1444;49.166;7.312;2023-03-23T13:24:46;14.60;99.90
2873;DHT22;1444;49.166;7.312;2023-03-23T13:32:14;14.10;99.90
2873;DHT22;1444;49.166;7.312;2023-03-23T13:34:42;14.00;99.90
2873;DHT22;1444;49.166;7.312;2023-03-23T13:37:20;14.00;99.90
2873;DHT22;1444;49.166;7.312;2023-03-23T13:39:53;14.10;99.90
2873;DHT22;1444;49.166;7.312;2023-03-23T13:42:23;14.10;99.90
2873;DHT22;1444;49.166;7.312;2023-03-23T13:45:07;13.90;99.90
2873;DHT22;1444;49.166;7.312;2023-03-23T13:47:38;14.10;99.90
2873;DHT22;1444;49.166;7.312;2023-03-23T13:50:11;14.10;99.90
2873;DHT22;1444;49.166;7.312;2023-03-23T13:52:51;14.10;99.90
2873;DHT22;1444;49.166;7.312;2023-03-23T13:55:40;14.00;99.90
2873;DHT22;1444;49.166;7.312;2023-03-23T13:58:20;14.00;99.90
2873;DHT22;1444;49.166;7.312;2023-03-23T14:00:49;14.00;99.90
2873;DHT22;1444;49.166;7.312;2023-03-23T14:03:19;13.90;99.90
2873;DHT22;1444;49.166;7.312;2023-03-23T14:05:59;14.00;99.90
2873;DHT22;1444;49.166;7.312;2023-03-23T14:08:40;14.00;99.90
2873;DHT22;1444;49.166;7.312;2023-03-23T14:11:13;14.00;99.90
2873;DHT22;1444;49.166;7.312;2023-03-23T14:13:45;13.90;99.90
2873;DHT22;1444;49.166;7.312;2023-03-23T14:16:18;13.90;99.90
2873;DHT22;1444;49.166;7.312;2023-03-23T14:18:52;14.00;99.90
2873;DHT22;1444;49.166;7.312;2023-03-23T14:21:31;14.00;99.90
2873;DHT22;1444;49.166;7.312;2023-03-23T14:24:02;14.00;99.90
2873;DHT22;1444;49.166;7.312;2023-03-23T14:26:29;14.00;99.90
2873;DHT22;1444;49.166;7.312;2023-03-23T14:28:59;14.00;99.90
2873;DHT22;1444;49.166;7.312;2023-03-23T14:31:27;14.00;99.90
2873;DHT22;1444;49.166;7.312;2023-03-23T14:33:55;14.00;99.90
2873;DHT22;1444;49.166;7.312;2023-03-23T14:36:23;14.00;99.90
2873;DHT22;1444;49.166;7.312;2023-03-23T14:39:04;14.00;99.90
2873;DHT22;1444;49.166;7.312;2023-03-23T14:41:34;14.00;99.90
2873;DHT22;1444;49.166;7.312;2023-03-23T14:44:03;14.00;99.90
2873;DHT22;1444;49.166;7.312;2023-03-23T14:46:31;14.00;99.90
2873;DHT22;1444;49.166;7.312;2023-03-23T14:49:00;14.10;99.90
2873;DHT22;1444;49.166;7.312;2023-03-23T14:51:27;14.10;99.90
2873;DHT22;1444;49.166;7.312;2023-03-23T14:53:54;13.90;99.90
2873;DHT22;1444;49.166;7.312;2023-03-23T14:56:23;13.90;99.90
2873;DHT22;1444;49.166;7.312;2023-03-23T14:58:53;13.90;99.90
2873;DHT22;1444;49.166;7.312;2023-03-23T15:01:24;13.80;99.90
2873;DHT22;1444;49.166;7.312;2023-03-23T15:03:55;13.90;99.90
2873;DHT22;1444;49.166;7.312;2023-03-23T15:06:24;13.80;99.90
2873;DHT22;1444;49.166;7.312;2023-03-23T15:08:54;13.70;99.90
2873;DHT22;1444;49.166;7.312;2023-03-23T15:11:28;13.70;99.90
2873;DHT22;1444;49.166;7.312;2023-03-23T15:13:57;13.60;99.90
2873;DHT22;1444;49.166;7.312;2023-03-23T15:16:30;13.60;99.90
2873;DHT22;1444;49.166;7.312;2023-03-23T15:18:59;13.60;99.90
2873;DHT22;1444;49.166;7.312;2023-03-23T15:21:29;13.70;99.90
2873;DHT22;1444;49.166;7.312;2023-03-23T15:23:57;13.70;99.90
2873;DHT22;1444;49.166;7.312;2023-03-23T15:26:32;13.60;99.90
2873;DHT22;1444;49.166;7.312;2023-03-23T15:29:03;13.50;99.90
2873;DHT22;1444;49.166;7.312;2023-03-23T15:31:30;13.50;99.90
2873;DHT22;1444;49.166;7.312;2023-03-23T15:34:02;13.60;99.90
2873;DHT22;1444;49.166;7.312;2023-03-23T15:36:32;13.50;99.90
2873;DHT22;1444;49.166;7.312;2023-03-23T15:39:00;13.60;99.90
2873;DHT22;1444;49.166;7.312;2023-03-23T15:41:30;13.60;99.90
2873;DHT22;1444;49.166;7.312;2023-03-23T15:44:10;13.70;99.90
2873;DHT22;1444;49.166;7.312;2023-03-23T15:46:48;13.80;99.90
2873;DHT22;1444;49.166;7.312;2023-03-23T15:49:15;13.90;99.90
2873;DHT22;1444;49.166;7.312;2023-03-23T15:51:42;14.00;99.90
2873;DHT22;1444;49.166;7.312;2023-03-23T15:54:12;17.70;99.90
2873;DHT22;1444;49.166;7.312;2023-03-23T15:56:41;14.10;99.90
2873;DHT22;1444;49.166;7.312;2023-03-23T15:59:08;15.80;99.90
2873;DHT22;1444;49.166;7.312;2023-03-23T16:01:36;14.20;99.90
2873;DHT22;1444;49.166;7.312;2023-03-23T16:06:33;14.10;99.90
2873;DHT22;1444;49.166;7.312;2023-03-23T16:09:00;14.10;99.90
2873;DHT22;1444;49.166;7.312;2023-03-23T16:11:29;14.10;99.90
2873;DHT22;1444;49.166;7.312;2023-03-23T16:13:58;14.10;99.90
2873;DHT22;1444;49.166;7.312;2023-03-23T16:16:27;13.90;99.90
2873;DHT22;1444;49.166;7.312;2023-03-23T16:18:54;13.90;99.90
2873;DHT22;1444;49.166;7.312;2023-03-23T16:21:21;13.90;99.90
2873;DHT22;1444;49.166;7.312;2023-03-23T16:23:48;13.90;99.90
2873;DHT22;1444;49.166;7.312;2023-03-23T16:26:15;14.00;99.90
2873;DHT22;1444;49.166;7.312;2023-03-23T16:28:43;14.00;99.90
2873;DHT22;1444;49.166;7.312;2023-03-23T16:31:11;14.00;99.90
2873;DHT22;1444;49.166;7.312;2023-03-23T16:33:37;13.90;99.90
2873;DHT22;1444;49.166;7.312;2023-03-23T16:36:05;14.00;99.90
2873;DHT22;1444;49.166;7.312;2023-03-23T16:38:32;13.90;99.90
2873;DHT22;1444;49.166;7.312;2023-03-23T16:40:58;13.90;99.90
2873;DHT22;1444;49.166;7.312;2023-03-23T16:43:25;13.90;99.90
2873;DHT22;1444;49.166;7.312;2023-03-23T16:45:54;13.90;99.90
2873;DHT22;1444;49.166;7.312;2023-03-23T16:48:23;14.00;99.90
2873;DHT22;1444;49.166;7.312;2023-03-23T16:50:51;14.00;99.90
2873;DHT22;1444;49.166;7.312;2023-03-23T16:53:19;14.00;99.90
2873;DHT22;1444;49.166;7.312;2023-03-23T16:55:46;14.10;99.90
2873;DHT22;1444;49.166;7.312;2023-03-23T16:58:14;14.10;99.90
2873;DHT22;1444;49.166;7.312;2023-03-23T17:00:41;14.20;99.90
2873;DHT22;1444;49.166;7.312;2023-03-23T17:03:08;14.30;99.90
2873;DHT22;1444;49.166;7.312;2023-03-23T17:05:37;14.30;99.90
2873;DHT22;1444;49.166;7.312;2023-03-23T17:08:04;14.30;99.90
2873;DHT22;1444;49.166;7.312;2023-03-23T17:10:32;14.40;99.90
2873;DHT22;1444;49.166;7.312;2023-03-23T17:12:59;14.50;99.90
2873;DHT22;1444;49.166;7.312;2023-03-23T17:15:26;14.50;99.90
2873;DHT22;1444;49.166;7.312;2023-03-23T17:17:53;14.50;99.90
2873;DHT22;1444;49.166;7.312;2023-03-23T17:20:20;14.40;99.90
2873;DHT22;1444;49.166;7.312;2023-03-23T17:22:49;14.40;99.90
2873;DHT22;1444;49.166;7.312;2023-03-23T17:25:16;14.40;99.90